sensor_id;sensor_type;location;lat;lon;timestamp;pressure;altitude;pressure_sealevel;temperature;humidity
13695;BME280;6919;52.344;14.518;2022-11-13T00:01:24;102309.38;;;11.15;100.00
13695;BME280;6919;52.344;14.518;2022-11-13T00:03:53;102309.69;;;11.23;100.00
13695;BME280;6919;52.344;14.518;2022-11-13T00:06:21;102313.19;;;11.24;100.00
13695;BME280;6919;52.344;14.518;2022-11-13T00:08:53;102306.81;;;11.14;100.00
13695;BME280;6919;52.344;14.518;2022-11-13T00:11:23;102311.53;;;10.99;100.00
13695;BME280;6919;52.344;14.518;2022-11-13T00:13:52;102316.84;;;11.12;100.00
13695;BME280;6919;52.344;14.518;2022-11-13T00:16:20;102306.16;;;10.99;100.00
13695;BME280;6919;52.344;14.518;2022-11-13T00:18:49;102312.94;;;11.16;100.00
13695;BME280;6919;52.344;14.518;2022-11-13T00:21:21;102310.13;;;11.17;100.00
13695;BME280;6919;52.344;14.518;2022-11-13T00:23:50;102307.56;;;11.16;100.00
13695;BME280;6919;52.344;14.518;2022-11-13T00:26:23;102304.69;;;10.95;100.00
13695;BME280;6919;52.344;14.518;2022-11-13T00:28:53;102310.03;;;11.19;100.00
13695;BME280;6919;52.344;14.518;2022-11-13T00:31:22;102306.31;;;11.09;100.00
13695;BME280;6919;52.344;14.518;2022-11-13T00:33:51;102298.50;;;11.06;100.00
13695;BME280;6919;52.344;14.518;2022-11-13T00:36:39;102305.22;;;11.11;100.00
13695;BME280;6919;52.344;14.518;2022-11-13T00:39:08;102292.28;;;11.05;100.00
13695;BME280;6919;52.344;14.518;2022-11-13T00:41:38;102307.22;;;11.20;100.00
13695;BME280;6919;52.344;14.518;2022-11-13T00:44:07;102311.63;;;11.21;100.00
13695;BME280;6919;52.344;14.518;2022-11-13T00:46:35;102287.75;;;11.06;100.00
13695;BME280;6919;52.344;14.518;2022-11-13T00:49:04;102295.28;;;10.90;100.00
13695;BME280;6919;52.344;14.518;2022-11-13T00:51:32;102301.81;;;11.09;100.00
13695;BME280;6919;52.344;14.518;2022-11-13T00:54:01;102291.00;;;11.22;100.00
13695;BME280;6919;52.344;14.518;2022-11-13T00:56:29;102288.59;;;10.95;100.00
13695;BME280;6919;52.344;14.518;2022-11-13T00:58:59;102296.81;;;11.16;100.00
13695;BME280;6919;52.344;14.518;2022-11-13T01:01:27;102296.81;;;11.16;100.00
13695;BME280;6919;52.344;14.518;2022-11-13T01:03:56;102296.47;;;11.20;100.00
13695;BME280;6919;52.344;14.518;2022-11-13T01:06:26;102297.38;;;11.32;100.00
13695;BME280;6919;52.344;14.518;2022-11-13T01:08:56;102288.66;;;11.17;100.00
13695;BME280;6919;52.344;14.518;2022-11-13T01:11:28;102288.44;;;11.20;100.00
13695;BME280;6919;52.344;14.518;2022-11-13T01:13:58;102290.47;;;11.17;100.00
13695;BME280;6919;52.344;14.518;2022-11-13T01:16:27;102282.84;;;11.23;100.00
13695;BME280;6919;52.344;14.518;2022-11-13T01:18:56;102276.50;;;11.35;100.00
13695;BME280;6919;52.344;14.518;2022-11-13T01:21:26;102274.03;;;11.32;100.00
13695;BME280;6919;52.344;14.518;2022-11-13T01:23:55;102275.84;;;11.21;100.00
13695;BME280;6919;52.344;14.518;2022-11-13T01:26:27;102277.16;;;11.15;100.00
13695;BME280;6919;52.344;14.518;2022-11-13T01:28:59;102273.69;;;10.91;100.00
13695;BME280;6919;52.344;14.518;2022-11-13T01:31:29;102276.22;;;11.16;100.00
13695;BME280;6919;52.344;14.518;2022-11-13T01:33:58;102269.34;;;11.12;100.00
13695;BME280;6919;52.344;14.518;2022-11-13T01:36:28;102269.72;;;11.08;100.00
13695;BME280;6919;52.344;14.518;2022-11-13T01:38:57;102259.56;;;11.00;100.00
13695;BME280;6919;52.344;14.518;2022-11-13T01:41:28;102264.75;;;10.91;100.00
13695;BME280;6919;52.344;14.518;2022-11-13T01:44:00;102246.91;;;11.13;100.00
13695;BME280;6919;52.344;14.518;2022-11-13T01:46:31;102250.28;;;11.04;100.00
13695;BME280;6919;52.344;14.518;2022-11-13T01:49:19;102249.47;;;11.15;100.00
13695;BME280;6919;52.344;14.518;2022-11-13T01:51:56;102258.44;;;11.03;100.00
13695;BME280;6919;52.344;14.518;2022-11-13T01:54:29;102255.19;;;11.10;100.00
13695;BME280;6919;52.344;14.518;2022-11-13T01:56:59;102258.97;;;11.08;100.00
13695;BME280;6919;52.344;14.518;2022-11-13T01:59:34;102247.84;;;11.01;100.00
13695;BME280;6919;52.344;14.518;2022-11-13T02:02:04;102248.28;;;11.19;100.00
13695;BME280;6919;52.344;14.518;2022-11-13T02:04:33;102246.47;;;11.30;100.00
13695;BME280;6919;52.344;14.518;2022-11-13T02:07:05;102246.19;;;11.22;100.00
13695;BME280;6919;52.344;14.518;2022-11-13T02:09:37;102246.16;;;11.11;100.00
13695;BME280;6919;52.344;14.518;2022-11-13T02:12:10;102238.00;;;11.13;100.00
13695;BME280;6919;52.344;14.518;2022-11-13T02:14:43;102235.94;;;11.16;100.00
13695;BME280;6919;52.344;14.518;2022-11-13T02:17:18;102234.38;;;11.25;100.00
13695;BME280;6919;52.344;14.518;2022-11-13T02:19:52;102232.53;;;11.25;100.00
13695;BME280;6919;52.344;14.518;2022-11-13T02:22:29;102234.72;;;11.20;100.00
13695;BME280;6919;52.344;14.518;2022-11-13T02:25:02;102230.06;;;11.11;100.00
13695;BME280;6919;52.344;14.518;2022-11-13T02:27:37;102228.34;;;11.10;100.00
13695;BME280;6919;52.344;14.518;2022-11-13T02:30:15;102228.03;;;11.26;100.00
13695;BME280;6919;52.344;14.518;2022-11-13T02:32:53;102218.84;;;11.17;100.00
13695;BME280;6919;52.344;14.518;2022-11-13T02:35:26;102219.84;;;11.27;100.00
13695;BME280;6919;52.344;14.518;2022-11-13T02:38:00;102225.56;;;11.23;100.00
13695;BME280;6919;52.344;14.518;2022-11-13T02:40:32;102220.41;;;11.09;100.00
13695;BME280;6919;52.344;14.518;2022-11-13T02:43:01;102222.97;;;11.10;100.00
13695;BME280;6919;52.344;14.518;2022-11-13T02:45:29;102214.94;;;11.21;100.00
13695;BME280;6919;52.344;14.518;2022-11-13T02:47:59;102214.25;;;11.30;100.00
13695;BME280;6919;52.344;14.518;2022-11-13T02:50:28;102219.00;;;11.27;100.00
13695;BME280;6919;52.344;14.518;2022-11-13T02:52:56;102205.88;;;11.11;100.00
13695;BME280;6919;52.344;14.518;2022-11-13T02:55:25;102201.03;;;11.05;100.00
13695;BME280;6919;52.344;14.518;2022-11-13T02:57:55;102200.75;;;11.08;100.00
13695;BME280;6919;52.344;14.518;2022-11-13T03:00:24;102197.03;;;11.22;100.00
13695;BME280;6919;52.344;14.518;2022-11-13T03:02:52;102195.25;;;11.10;100.00
13695;BME280;6919;52.344;14.518;2022-11-13T03:05:21;102192.78;;;10.96;100.00
13695;BME280;6919;52.344;14.518;2022-11-13T03:07:50;102189.72;;;10.89;100.00
13695;BME280;6919;52.344;14.518;2022-11-13T03:10:18;102189.09;;;10.86;100.00
13695;BME280;6919;52.344;14.518;2022-11-13T03:12:47;102186.06;;;10.90;100.00
13695;BME280;6919;52.344;14.518;2022-11-13T03:15:17;102184.41;;;11.00;100.00
13695;BME280;6919;52.344;14.518;2022-11-13T03:17:45;102178.31;;;11.09;100.00
13695;BME280;6919;52.344;14.518;2022-11-13T03:20:14;102176.34;;;11.00;100.00
13695;BME280;6919;52.344;14.518;2022-11-13T03:22:42;102175.88;;;11.06;100.00
13695;BME280;6919;52.344;14.518;2022-11-13T03:25:11;102180.75;;;11.12;100.00
13695;BME280;6919;52.344;14.518;2022-11-13T03:27:39;102182.69;;;10.99;100.00
13695;BME280;6919;52.344;14.518;2022-11-13T03:30:09;102173.41;;;10.92;100.00
13695;BME280;6919;52.344;14.518;2022-11-13T03:32:39;102177.56;;;10.96;100.00
13695;BME280;6919;52.344;14.518;2022-11-13T03:35:08;102177.09;;;11.02;100.00
13695;BME280;6919;52.344;14.518;2022-11-13T03:37:36;102186.19;;;10.89;100.00
13695;BME280;6919;52.344;14.518;2022-11-13T03:40:06;102181.47;;;10.92;100.00
13695;BME280;6919;52.344;14.518;2022-11-13T03:42:35;102189.91;;;11.10;100.00
13695;BME280;6919;52.344;14.518;2022-11-13T03:45:04;102183.94;;;11.17;100.00
13695;BME280;6919;52.344;14.518;2022-11-13T03:47:33;102177.81;;;11.15;100.00
13695;BME280;6919;52.344;14.518;2022-11-13T03:50:03;102178.94;;;11.24;100.00
13695;BME280;6919;52.344;14.518;2022-11-13T03:52:31;102174.31;;;11.26;100.00
13695;BME280;6919;52.344;14.518;2022-11-13T03:54:59;102170.75;;;11.03;100.00
13695;BME280;6919;52.344;14.518;2022-11-13T03:57:28;102172.69;;;11.01;100.00
13695;BME280;6919;52.344;14.518;2022-11-13T03:59:58;102165.25;;;11.05;100.00
13695;BME280;6919;52.344;14.518;2022-11-13T04:02:26;102168.06;;;11.03;100.00
13695;BME280;6919;52.344;14.518;2022-11-13T04:04:54;102165.84;;;11.08;100.00
13695;BME280;6919;52.344;14.518;2022-11-13T04:07:24;102173.91;;;11.08;100.00
13695;BME280;6919;52.344;14.518;2022-11-13T04:09:52;102170.28;;;11.20;100.00
13695;BME280;6919;52.344;14.518;2022-11-13T04:12:20;102161.47;;;11.07;100.00
13695;BME280;6919;52.344;14.518;2022-11-13T04:14:49;102166.19;;;10.93;100.00
13695;BME280;6919;52.344;14.518;2022-11-13T04:17:17;102171.50;;;11.05;100.00
13695;BME280;6919;52.344;14.518;2022-11-13T04:19:45;102168.81;;;11.05;100.00
13695;BME280;6919;52.344;14.518;2022-11-13T04:22:14;102162.22;;;11.09;100.00
13695;BME280;6919;52.344;14.518;2022-11-13T04:24:43;102160.59;;;11.07;100.00
13695;BME280;6919;52.344;14.518;2022-11-13T04:27:12;102159.03;;;11.04;100.00
13695;BME280;6919;52.344;14.518;2022-11-13T04:29:40;102163.44;;;11.05;100.00
13695;BME280;6919;52.344;14.518;2022-11-13T04:32:08;102161.22;;;10.99;100.00
13695;BME280;6919;52.344;14.518;2022-11-13T04:34:37;102159.97;;;10.92;100.00
13695;BME280;6919;52.344;14.518;2022-11-13T04:37:05;102169.47;;;10.85;100.00
13695;BME280;6919;52.344;14.518;2022-11-13T04:39:33;102162.25;;;10.86;100.00
13695;BME280;6919;52.344;14.518;2022-11-13T04:42:03;102162.16;;;10.87;100.00
13695;BME280;6919;52.344;14.518;2022-11-13T04:44:46;102161.44;;;10.96;100.00
13695;BME280;6919;52.344;14.518;2022-11-13T04:47:14;102159.97;;;10.92;100.00
13695;BME280;6919;52.344;14.518;2022-11-13T04:49:42;102162.41;;;10.84;100.00
13695;BME280;6919;52.344;14.518;2022-11-13T04:52:10;102165.50;;;11.02;100.00
13695;BME280;6919;52.344;14.518;2022-11-13T04:54:39;102167.16;;;10.92;100.00
13695;BME280;6919;52.344;14.518;2022-11-13T04:57:09;102163.28;;;10.96;100.00
13695;BME280;6919;52.344;14.518;2022-11-13T04:59:37;102158.50;;;10.88;100.00
13695;BME280;6919;52.344;14.518;2022-11-13T05:02:06;102161.53;;;10.84;100.00
13695;BME280;6919;52.344;14.518;2022-11-13T05:04:34;102160.22;;;10.89;100.00
13695;BME280;6919;52.344;14.518;2022-11-13T05:07:03;102158.88;;;10.84;100.00
13695;BME280;6919;52.344;14.518;2022-11-13T05:09:31;102152.44;;;10.63;100.00
13695;BME280;6919;52.344;14.518;2022-11-13T05:11:59;102155.53;;;10.80;100.00
13695;BME280;6919;52.344;14.518;2022-11-13T05:14:29;102154.63;;;10.92;100.00
13695;BME280;6919;52.344;14.518;2022-11-13T05:16:57;102156.31;;;10.93;100.00
13695;BME280;6919;52.344;14.518;2022-11-13T05:19:26;102159.47;;;10.87;100.00
13695;BME280;6919;52.344;14.518;2022-11-13T05:21:54;102152.91;;;10.91;100.00
13695;BME280;6919;52.344;14.518;2022-11-13T05:24:23;102159.22;;;10.90;100.00
13695;BME280;6919;52.344;14.518;2022-11-13T05:26:51;102156.31;;;10.93;100.00
13695;BME280;6919;52.344;14.518;2022-11-13T05:29:20;102156.94;;;10.97;100.00
13695;BME280;6919;52.344;14.518;2022-11-13T05:31:49;102155.22;;;10.96;100.00
13695;BME280;6919;52.344;14.518;2022-11-13T05:34:18;102151.47;;;10.98;100.00
13695;BME280;6919;52.344;14.518;2022-11-13T05:36:46;102157.66;;;10.88;100.00
13695;BME280;6919;52.344;14.518;2022-11-13T05:39:14;102145.22;;;10.87;100.00
13695;BME280;6919;52.344;14.518;2022-11-13T05:41:43;102150.81;;;10.84;100.00
13695;BME280;6919;52.344;14.518;2022-11-13T05:44:11;102151.69;;;10.84;100.00
13695;BME280;6919;52.344;14.518;2022-11-13T05:46:39;102151.94;;;10.92;100.00
13695;BME280;6919;52.344;14.518;2022-11-13T05:49:09;102144.34;;;10.86;100.00
13695;BME280;6919;52.344;14.518;2022-11-13T05:51:38;102130.81;;;10.88;100.00
13695;BME280;6919;52.344;14.518;2022-11-13T05:54:06;102126.22;;;11.01;100.00
13695;BME280;6919;52.344;14.518;2022-11-13T05:56:36;102136.53;;;10.94;100.00
13695;BME280;6919;52.344;14.518;2022-11-13T05:59:04;102132.16;;;10.93;100.00
13695;BME280;6919;52.344;14.518;2022-11-13T06:01:35;102136.16;;;10.77;100.00
13695;BME280;6919;52.344;14.518;2022-11-13T06:04:06;102142.88;;;10.82;100.00
13695;BME280;6919;52.344;14.518;2022-11-13T06:06:36;102129.44;;;10.71;100.00
13695;BME280;6919;52.344;14.518;2022-11-13T06:09:06;102132.16;;;10.82;100.00
13695;BME280;6919;52.344;14.518;2022-11-13T06:11:34;102134.59;;;10.85;100.00
13695;BME280;6919;52.344;14.518;2022-11-13T06:14:02;102130.81;;;10.99;100.00
13695;BME280;6919;52.344;14.518;2022-11-13T06:16:35;102129.72;;;10.90;100.00
13695;BME280;6919;52.344;14.518;2022-11-13T06:19:07;102123.63;;;10.88;100.00
13695;BME280;6919;52.344;14.518;2022-11-13T06:21:39;102128.75;;;10.91;100.00
13695;BME280;6919;52.344;14.518;2022-11-13T06:24:10;102129.13;;;10.98;100.00
13695;BME280;6919;52.344;14.518;2022-11-13T06:26:39;102120.72;;;10.91;100.00
13695;BME280;6919;52.344;14.518;2022-11-13T06:29:11;102126.69;;;10.95;100.00
13695;BME280;6919;52.344;14.518;2022-11-13T06:31:39;102128.25;;;10.97;100.00
13695;BME280;6919;52.344;14.518;2022-11-13T06:34:07;102138.16;;;10.97;100.00
13695;BME280;6919;52.344;14.518;2022-11-13T06:36:37;102132.16;;;10.82;100.00
13695;BME280;6919;52.344;14.518;2022-11-13T06:39:07;102134.13;;;10.91;100.00
13695;BME280;6919;52.344;14.518;2022-11-13T06:41:37;102124.56;;;10.87;100.00
13695;BME280;6919;52.344;14.518;2022-11-13T06:44:06;102125.31;;;10.89;100.00
13695;BME280;6919;52.344;14.518;2022-11-13T06:46:34;102126.03;;;10.80;100.00
13695;BME280;6919;52.344;14.518;2022-11-13T06:49:03;102132.91;;;10.84;100.00
13695;BME280;6919;52.344;14.518;2022-11-13T06:51:31;102127.38;;;10.86;100.00
13695;BME280;6919;52.344;14.518;2022-11-13T06:54:01;102116.78;;;10.84;100.00
13695;BME280;6919;52.344;14.518;2022-11-13T06:56:30;102117.50;;;10.86;100.00
13695;BME280;6919;52.344;14.518;2022-11-13T06:58:58;102115.03;;;10.72;100.00
13695;BME280;6919;52.344;14.518;2022-11-13T07:01:26;102109.94;;;10.80;100.00
13695;BME280;6919;52.344;14.518;2022-11-13T07:03:55;102119.94;;;10.78;100.00
13695;BME280;6919;52.344;14.518;2022-11-13T07:06:24;102121.16;;;10.74;100.00
13695;BME280;6919;52.344;14.518;2022-11-13T07:08:52;102102.84;;;10.79;100.00
13695;BME280;6919;52.344;14.518;2022-11-13T07:11:22;102117.97;;;10.80;100.00
13695;BME280;6919;52.344;14.518;2022-11-13T07:13:51;102117.41;;;10.88;100.00
13695;BME280;6919;52.344;14.518;2022-11-13T07:16:19;102115.56;;;10.88;100.00
13695;BME280;6919;52.344;14.518;2022-11-13T07:18:52;102115.56;;;10.88;100.00
13695;BME280;6919;52.344;14.518;2022-11-13T07:21:21;102117.88;;;10.93;100.00
13695;BME280;6919;52.344;14.518;2022-11-13T07:23:50;102116.69;;;11.08;100.00
13695;BME280;6919;52.344;14.518;2022-11-13T07:26:18;102112.03;;;10.99;100.00
13695;BME280;6919;52.344;14.518;2022-11-13T07:28:49;102107.88;;;10.84;100.00
13695;BME280;6919;52.344;14.518;2022-11-13T07:31:17;102115.34;;;10.91;100.00
13695;BME280;6919;52.344;14.518;2022-11-13T07:33:48;102113.63;;;11.01;100.00
13695;BME280;6919;52.344;14.518;2022-11-13T07:36:17;102108.38;;;11.00;100.00
13695;BME280;6919;52.344;14.518;2022-11-13T07:38:45;102106.06;;;10.84;100.00
13695;BME280;6919;52.344;14.518;2022-11-13T07:41:13;102106.78;;;10.86;100.00
13695;BME280;6919;52.344;14.518;2022-11-13T07:43:42;102110.81;;;10.92;100.00
13695;BME280;6919;52.344;14.518;2022-11-13T07:46:11;102110.34;;;10.98;100.00
13695;BME280;6919;52.344;14.518;2022-11-13T07:48:40;102117.75;;;10.94;100.00
13695;BME280;6919;52.344;14.518;2022-11-13T07:51:08;102119.97;;;10.89;100.00
13695;BME280;6919;52.344;14.518;2022-11-13T07:53:36;102120.72;;;11.02;100.00
13695;BME280;6919;52.344;14.518;2022-11-13T07:56:06;102115.59;;;10.99;100.00
13695;BME280;6919;52.344;14.518;2022-11-13T07:58:35;102112.28;;;10.96;100.00
13695;BME280;6919;52.344;14.518;2022-11-13T08:01:05;102121.63;;;10.79;100.00
13695;BME280;6919;52.344;14.518;2022-11-13T08:03:35;102117.94;;;10.69;100.00
13695;BME280;6919;52.344;14.518;2022-11-13T08:06:05;102115.19;;;10.93;100.00
13695;BME280;6919;52.344;14.518;2022-11-13T08:08:34;102111.44;;;10.84;100.00
13695;BME280;6919;52.344;14.518;2022-11-13T08:11:04;102104.72;;;10.79;100.00
13695;BME280;6919;52.344;14.518;2022-11-13T08:13:33;102105.66;;;10.78;100.00
13695;BME280;6919;52.344;14.518;2022-11-13T08:16:03;102105.63;;;10.67;100.00
13695;BME280;6919;52.344;14.518;2022-11-13T08:18:34;102101.16;;;10.78;100.00
13695;BME280;6919;52.344;14.518;2022-11-13T08:21:05;102107.59;;;10.65;100.00
13695;BME280;6919;52.344;14.518;2022-11-13T08:23:40;102105.06;;;10.74;100.00
13695;BME280;6919;52.344;14.518;2022-11-13T08:26:09;102095.66;;;10.69;100.00
13695;BME280;6919;52.344;14.518;2022-11-13T08:28:38;102101.63;;;10.83;100.00
13695;BME280;6919;52.344;14.518;2022-11-13T08:31:10;102104.72;;;10.90;100.00
13695;BME280;6919;52.344;14.518;2022-11-13T08:33:40;102097.38;;;10.81;100.00
13695;BME280;6919;52.344;14.518;2022-11-13T08:36:10;102095.06;;;10.87;100.00
13695;BME280;6919;52.344;14.518;2022-11-13T08:38:38;102105.66;;;10.78;100.00
13695;BME280;6919;52.344;14.518;2022-11-13T08:41:07;102098.97;;;10.94;100.00
13695;BME280;6919;52.344;14.518;2022-11-13T08:43:36;102095.53;;;10.70;100.00
13695;BME280;6919;52.344;14.518;2022-11-13T08:46:05;102110.78;;;10.70;100.00
13695;BME280;6919;52.344;14.518;2022-11-13T08:48:33;102104.09;;;10.97;100.00
13695;BME280;6919;52.344;14.518;2022-11-13T08:51:04;102107.31;;;11.02;100.00
13695;BME280;6919;52.344;14.518;2022-11-13T08:53:32;102103.38;;;10.84;100.00
13695;BME280;6919;52.344;14.518;2022-11-13T08:56:01;102093.00;;;10.91;100.00
13695;BME280;6919;52.344;14.518;2022-11-13T08:58:30;102093.38;;;10.97;100.00
13695;BME280;6919;52.344;14.518;2022-11-13T09:00:59;102094.47;;;11.06;100.00
13695;BME280;6919;52.344;14.518;2022-11-13T09:03:28;102106.44;;;11.02;100.00
13695;BME280;6919;52.344;14.518;2022-11-13T09:05:57;102106.31;;;10.92;100.00
13695;BME280;6919;52.344;14.518;2022-11-13T09:08:29;102104.38;;;11.16;100.00
13695;BME280;6919;52.344;14.518;2022-11-13T09:11:02;102109.75;;;11.05;100.00
13695;BME280;6919;52.344;14.518;2022-11-13T09:13:32;102108.66;;;11.08;100.00
13695;BME280;6919;52.344;14.518;2022-11-13T09:16:07;102105.44;;;11.03;100.00
13695;BME280;6919;52.344;14.518;2022-11-13T09:18:36;102101.94;;;11.24;100.00
13695;BME280;6919;52.344;14.518;2022-11-13T09:21:04;102093.88;;;11.13;100.00
13695;BME280;6919;52.344;14.518;2022-11-13T09:23:34;102101.06;;;11.02;100.00
13695;BME280;6919;52.344;14.518;2022-11-13T09:26:03;102091.19;;;10.91;100.00
13695;BME280;6919;52.344;14.518;2022-11-13T09:28:31;102099.13;;;11.04;100.00
13695;BME280;6919;52.344;14.518;2022-11-13T09:31:03;102101.06;;;10.91;100.00
13695;BME280;6919;52.344;14.518;2022-11-13T09:33:32;102098.47;;;10.78;100.00
13695;BME280;6919;52.344;14.518;2022-11-13T09:36:01;102091.66;;;10.74;100.00
13695;BME280;6919;52.344;14.518;2022-11-13T09:38:29;102087.28;;;10.95;100.00
13695;BME280;6919;52.344;14.518;2022-11-13T09:41:04;102087.50;;;10.81;100.00
13695;BME280;6919;52.344;14.518;2022-11-13T09:43:43;102089.34;;;10.92;100.00
13695;BME280;6919;52.344;14.518;2022-11-13T09:46:20;102097.50;;;11.01;100.00
13695;BME280;6919;52.344;14.518;2022-11-13T09:48:56;102093.13;;;11.11;100.00
13695;BME280;6919;52.344;14.518;2022-11-13T09:51:31;102091.56;;;10.98;100.00
13695;BME280;6919;52.344;14.518;2022-11-13T09:54:05;102084.41;;;10.64;100.00
13695;BME280;6919;52.344;14.518;2022-11-13T09:56:39;102089.31;;;10.81;100.00
13695;BME280;6919;52.344;14.518;2022-11-13T09:59:22;102082.13;;;10.70;100.00
13695;BME280;6919;52.344;14.518;2022-11-13T10:01:59;102081.75;;;10.75;100.00
13695;BME280;6919;52.344;14.518;2022-11-13T10:04:45;102085.59;;;10.49;100.00
13695;BME280;6919;52.344;14.518;2022-11-13T10:07:30;102083.28;;;10.55;100.00
13695;BME280;6919;52.344;14.518;2022-11-13T10:10:33;102078.69;;;10.68;100.00
13695;BME280;6919;52.344;14.518;2022-11-13T10:13:10;102075.88;;;10.59;100.00
13695;BME280;6919;52.344;14.518;2022-11-13T10:15:42;102072.09;;;10.61;100.00
13695;BME280;6919;52.344;14.518;2022-11-13T10:18:18;102079.88;;;10.53;100.00
13695;BME280;6919;52.344;14.518;2022-11-13T10:20:50;102069.19;;;10.64;100.00
13695;BME280;6919;52.344;14.518;2022-11-13T10:23:28;102072.88;;;10.74;100.00
13695;BME280;6919;52.344;14.518;2022-11-13T10:26:12;102072.75;;;10.76;100.00
13695;BME280;6919;52.344;14.518;2022-11-13T10:28:43;102079.47;;;10.92;100.00
13695;BME280;6919;52.344;14.518;2022-11-13T10:31:17;102072.16;;;11.05;100.00
13695;BME280;6919;52.344;14.518;2022-11-13T10:33:46;102070.59;;;11.25;100.00
13695;BME280;6919;52.344;14.518;2022-11-13T10:36:27;102068.72;;;11.25;100.00
13695;BME280;6919;52.344;14.518;2022-11-13T10:39:04;102063.84;;;11.30;100.00
13695;BME280;6919;52.344;14.518;2022-11-13T10:41:32;102057.25;;;11.34;100.00
13695;BME280;6919;52.344;14.518;2022-11-13T10:44:20;102060.78;;;11.35;100.00
13695;BME280;6919;52.344;14.518;2022-11-13T10:46:49;102058.34;;;11.43;100.00
13695;BME280;6919;52.344;14.518;2022-11-13T10:49:19;102054.31;;;11.48;100.00
13695;BME280;6919;52.344;14.518;2022-11-13T10:51:55;102049.28;;;11.55;100.00
13695;BME280;6919;52.344;14.518;2022-11-13T10:54:28;102050.84;;;11.57;100.00
13695;BME280;6919;52.344;14.518;2022-11-13T10:56:59;102045.59;;;11.67;100.00
13695;BME280;6919;52.344;14.518;2022-11-13T10:59:38;102052.50;;;11.92;100.00
13695;BME280;6919;52.344;14.518;2022-11-13T11:02:16;102046.31;;;11.80;100.00
13695;BME280;6919;52.344;14.518;2022-11-13T11:04:45;102042.91;;;12.10;100.00
13695;BME280;6919;52.344;14.518;2022-11-13T11:07:16;102046.34;;;12.12;100.00
13695;BME280;6919;52.344;14.518;2022-11-13T11:09:49;102038.03;;;12.04;100.00
13695;BME280;6919;52.344;14.518;2022-11-13T11:12:20;102040.28;;;12.19;100.00
13695;BME280;6919;52.344;14.518;2022-11-13T11:15:17;102042.03;;;12.09;100.00
13695;BME280;6919;52.344;14.518;2022-11-13T11:17:51;102037.06;;;12.05;100.00
13695;BME280;6919;52.344;14.518;2022-11-13T11:20:35;102040.03;;;12.22;100.00
13695;BME280;6919;52.344;14.518;2022-11-13T11:23:18;102033.03;;;12.10;100.00
13695;BME280;6919;52.344;14.518;2022-11-13T11:25:55;102021.69;;;11.96;100.00
13695;BME280;6919;52.344;14.518;2022-11-13T11:28:31;102020.22;;;12.03;100.00
13695;BME280;6919;52.344;14.518;2022-11-13T11:31:11;102024.34;;;12.07;100.00
13695;BME280;6919;52.344;14.518;2022-11-13T11:33:52;102013.88;;;12.24;100.00
13695;BME280;6919;52.344;14.518;2022-11-13T11:36:29;102012.56;;;12.39;100.00
13695;BME280;6919;52.344;14.518;2022-11-13T11:39:06;102005.47;;;12.59;100.00
13695;BME280;6919;52.344;14.518;2022-11-13T11:41:51;102002.47;;;12.82;100.00
13695;BME280;6919;52.344;14.518;2022-11-13T11:44:38;101997.38;;;12.59;100.00
13695;BME280;6919;52.344;14.518;2022-11-13T11:47:15;101992.78;;;12.70;100.00
13695;BME280;6919;52.344;14.518;2022-11-13T11:49:45;101997.69;;;12.65;100.00
13695;BME280;6919;52.344;14.518;2022-11-13T11:52:40;101989.72;;;12.54;100.00
13695;BME280;6919;52.344;14.518;2022-11-13T11:55:33;101984.28;;;12.75;100.00
13695;BME280;6919;52.344;14.518;2022-11-13T11:58:25;101988.44;;;12.58;100.00
13695;BME280;6919;52.344;14.518;2022-11-13T12:01:04;101983.47;;;12.54;100.00
13695;BME280;6919;52.344;14.518;2022-11-13T12:04:02;101978.50;;;12.29;100.00
13695;BME280;6919;52.344;14.518;2022-11-13T12:06:50;101974.06;;;12.18;100.00
13695;BME280;6919;52.344;14.518;2022-11-13T12:09:28;101971.19;;;12.10;100.00
13695;BME280;6919;52.344;14.518;2022-11-13T12:12:08;101971.94;;;12.01;100.00
13695;BME280;6919;52.344;14.518;2022-11-13T12:14:49;101959.81;;;12.07;100.00
13695;BME280;6919;52.344;14.518;2022-11-13T12:17:43;101963.94;;;12.11;100.00
13695;BME280;6919;52.344;14.518;2022-11-13T12:20:28;101953.72;;;12.05;100.00
13695;BME280;6919;52.344;14.518;2022-11-13T12:23:13;101954.97;;;12.21;100.00
13695;BME280;6919;52.344;14.518;2022-11-13T12:25:51;101949.59;;;12.21;100.00
13695;BME280;6919;52.344;14.518;2022-11-13T12:28:32;101940.72;;;12.10;100.00
13695;BME280;6919;52.344;14.518;2022-11-13T12:31:23;101944.53;;;12.07;100.00
13695;BME280;6919;52.344;14.518;2022-11-13T12:34:05;101944.53;;;12.28;100.00
13695;BME280;6919;52.344;14.518;2022-11-13T12:36:38;101944.44;;;12.39;100.00
13695;BME280;6919;52.344;14.518;2022-11-13T12:39:32;101946.00;;;12.41;100.00
13695;BME280;6919;52.344;14.518;2022-11-13T12:42:18;101943.63;;;12.38;100.00
13695;BME280;6919;52.344;14.518;2022-11-13T12:44:58;101942.41;;;12.52;100.00
13695;BME280;6919;52.344;14.518;2022-11-13T12:47:29;101937.53;;;12.46;100.00
13695;BME280;6919;52.344;14.518;2022-11-13T12:50:04;101942.78;;;12.47;100.00
13695;BME280;6919;52.344;14.518;2022-11-13T12:52:34;101931.38;;;12.34;100.00
13695;BME280;6919;52.344;14.518;2022-11-13T12:55:06;101931.22;;;12.26;100.00
13695;BME280;6919;52.344;14.518;2022-11-13T12:57:46;101932.00;;;12.38;100.00
13695;BME280;6919;52.344;14.518;2022-11-13T13:00:24;101922.34;;;12.15;100.00
13695;BME280;6919;52.344;14.518;2022-11-13T13:03:14;101919.78;;;12.34;100.00
13695;BME280;6919;52.344;14.518;2022-11-13T13:06:08;101922.44;;;11.83;100.00